Time;durP1;ratioP1;P1;durP2;ratioP2;P2;SDS_P1;SDS_P2;PMS_P1;PMS_P2;Temp;Humidity;BMP_temperature;BMP_pressure;BME280_temperature;BME280_humidity;BME280_pressure;Samples;Min_cycle;Max_cycle;Signal;HPM_P1;HPM_P2
2024/01/13 00:20:29;;;;;;;14.1;5.1;;;;;;;;;;;;;-84
2024/01/13 00:50:29;;;;;;;11.2;3.8;;;;;;;;;;;;;-84
2024/01/13 01:20:48;;;;;;;4.1;1.5;;;;;;;;;;;;;-85
2024/01/13 01:50:29;;;;;;;4.8;1;;;;;;;;;;;;;-85
2024/01/13 02:20:31;;;;;;;6.4;1.2;;;;;;;;;;;;;-85
2024/01/13 02:50:42;;;;;;;2.6;0.8;;;;;;;;;;;;;-84
2024/01/13 03:50:34;;;;;;;5.2;1.3;;;;;;;;;;;;;-84
2024/01/13 04:20:29;;;;;;;6.1;1.1;;;;;;;;;;;;;-83
2024/01/13 04:50:27;;;;;;;2.9;0.6;;;;;;;;;;;;;-85
2024/01/13 05:20:32;;;;;;;3.6;0.5;;;;;;;;;;;;;-85
2024/01/13 05:50:34;;;;;;;5;0.5;;;;;;;;;;;;;-83
2024/01/13 06:20:26;;;;;;;8.5;2.9;;;;;;;;;;;;;-85
2024/01/13 06:50:26;;;;;;;10.2;4.9;;;;;;;;;;;;;-85
2024/01/13 07:20:26;;;;;;;14.8;5.3;;;;;;;;;;;;;-84
2024/01/13 07:50:25;;;;;;;15;7;;;;;;;;;;;;;-85
2024/01/13 08:20:27;;;;;;;31.4;12.5;;;;;;;;;;;;;-86
2024/01/13 08:50:32;;;;;;;45.1;19.2;;;;;;;;;;;;;-85
2024/01/13 09:20:30;;;;;;;51.5;23.5;;;;;;;;;;;;;-87
2024/01/13 09:50:31;;;;;;;56;24.8;;;;;;;;;;;;;-87
2024/01/13 10:20:31;;;;;;;46.6;21.3;;;;;;;;;;;;;-87
2024/01/13 10:50:27;;;;;;;49;22.3;;;;;;;;;;;;;-85
2024/01/13 11:20:24;;;;;;;27.8;13.4;;;;;;;;;;;;;-83
2024/01/13 11:50:38;;;;;;;20.5;8.7;;;;;;;;;;;;;-84
2024/01/13 12:20:24;;;;;;;7.5;3.9;;;;;;;;;;;;;-83
2024/01/13 12:50:37;;;;;;;10.2;3.4;;;;;;;;;;;;;-84
2024/01/13 13:20:24;;;;;;;11.5;3.6;;;;;;;;;;;;;-84
2024/01/13 13:50:24;;;;;;;8.7;2.7;;;;;;;;;;;;;-83
2024/01/13 14:20:24;;;;;;;6.5;2.1;;;;;;;;;;;;;-83
2024/01/13 14:50:24;;;;;;;4.5;2.2;;;;;;;;;;;;;-83
2024/01/13 15:20:23;;;;;;;14.6;4.1;;;;;;;;;;;;;-81
2024/01/13 15:50:24;;;;;;;29.2;9.2;;;;;;;;;;;;;-82
2024/01/13 16:20:24;;;;;;;32.5;11.6;;;;;;;;;;;;;-81
2024/01/13 16:50:24;;;;;;;32.8;11.4;;;;;;;;;;;;;-81
2024/01/13 17:20:24;;;;;;;38.6;13.1;;;;;;;;;;;;;-82
2024/01/13 17:50:25;;;;;;;44.6;14.8;;;;;;;;;;;;;-84
2024/01/13 18:20:25;;;;;;;26.2;8.6;;;;;;;;;;;;;-82
2024/01/13 18:50:23;;;;;;;30;8.7;;;;;;;;;;;;;-82
2024/01/13 19:20:26;;;;;;;24.1;6.8;;;;;;;;;;;;;-82
2024/01/13 19:50:25;;;;;;;3.2;1;;;;;;;;;;;;;-83
2024/01/13 20:20:26;;;;;;;14.5;3.2;;;;;;;;;;;;;-84
2024/01/13 20:50:25;;;;;;;15.7;3.3;;;;;;;;;;;;;-81
2024/01/13 21:20:24;;;;;;;11.5;2.6;;;;;;;;;;;;;-83
2024/01/13 21:50:30;;;;;;;10.8;2.2;;;;;;;;;;;;;-82
2024/01/13 22:20:25;;;;;;;11.7;1.5;;;;;;;;;;;;;-82
2024/01/13 22:50:24;;;;;;;6.6;0.9;;;;;;;;;;;;;-82
2024/01/13 23:20:24;;;;;;;10.5;1.8;;;;;;;;;;;;;-83
2024/01/13 23:50:25;;;;;;;7.4;1.5;;;;;;;;;;;;;-83
